Timeline UpdatesTrip UpdatesNews PostsPvt Posts♥♥Travel TipsAdmin PostsConv PostsFollowed PostsChat RequestsBlog PostsPNR Posts

Disclaimer
Search
 
 
Tue Oct 21, 2014 15:55:50 ISTHomeTrainsΣChainsAtlasPNRForumGalleryNewsFAQTripsMembersLoginFeedback
No Recent News for this Train
Other Trains in the News **new
Latest...
running with se1
Wed Aug 27, 2014 (09:42AM)
⇐ Return Journey: Train# 18238

18237/Chhattisgarh Express

Time-Table HAS CHANGED.
Sep 01 2014 (11:44PM)
Change Departure Station:
Change Arrival Station:
Post a Train Travel TipPost a Train Travel Tip **new
Post a Comment/Question/Picture/VideoPost a Comment/Question/Picture/Video
Inaugural Run
Sat Jan 01, 1977
Pantry/Catering
✓ Pantry Car Avbl
✓ Catering Avbl
Food is of Average Quality
Loco/Rake Reversals
NGP/Nagpur Junction (8);
RSA - Rake Sharing
58209
Rake/Coach Composition
LOCO-SLR-GS-S1-S2-S3-S4-S5-S6-S7-S8-S9-S10-PC-S11-S12-B3-B2-B1-A1-HA1-GS-SLR-SP1
Loco
BSP - NGP --- ET WAP4 NGP - NZM --- AJNI...
Read more...
WAP7 NZM - ASR ---- TKD WDP4 Author: Mahesh Gupta Entry# 295353
News    PNR    Forum    Time-Table    Availability    Fare Chart    Map    Arr/Dep History    Trips    Gallery    ΣChains    X/O    Timeline    
Travel Time: 1h 16m    2 halts    Distance: 73 km    Avg Speed: 57 km/hr
Type: Mail/Express
Zone: SECR/South East Central
Departs @ 18:02 (Avg 26m late)
Platform# ???
SMTWTFS
Dongargarh/DGG 
Arrives @ 19:18 (Avg 22m late)
Platform# ???
SMTWTFS
Gondia Junction/G 

2 halts. 7 intermediate Stations between Dongargarh and Gondia Junction

Show ALL intermediate Stations  Show Old Time-Table

#TrkCodeStation NameX/OArrivesAvgDepartsAvgHaltPFDay#KmSpeedElevZoneAddress
1/==/BSPBilaspur Junction (8)  -14:15+131-209.452271mSECRBilaspur, Chhattisgarh
2/==/BYLBelha  14:34 14:33+714:35+71 2m--1-193.880269mSECRCollege Road, Chhattisgarh
3/==/BYTBhatapara (4)X  14:59 14:58+1115:00+111 2m--1-163.271270mSECRBanjari Road, Chhattisgarh
4/==/HNHathbandhX  15:13+1115:14+121m--1-147.871283mSECRRaipur, Chhattisgarh
5/==/TLDTilda (3)X  15:24 15:23+1115:25+121 2m--1-137.151 SECRBanjari Rd, Chhattisgarh
6/==/RRaipur Junction (6)XO  16:10+1116:20+910m--1-98.984297mSECRRaipur, Chhattisgarh
7/==/BPHBBhilai Power House (3)  16:41 16:40+016:42+01 2m--1-70.919312mSECRBhilai, Chhattisgarh
8/==/DURGDurg Junction (6)X  17:10+117:15+35m11-62.087299mSECRPh: 91-788-2322059, Chhattisgarh
9/==/RJNRaj Nandgaon (3)X  17:36+1717:38+172m--1-31.586313mSECRRajnandgaon, Chhattisgarh
10/==/DGGDongargarh (2)»  18:01 18:00+2518:02+261 2m--10.067 SECRDongargarh, Chhattisgarh
11/==/SKSSalekasa (2)  18:35 18:34+3118:36+311 2m--135.780312mSECRRajnandgaon, Chhattisgarh
12/==/AGNAmgaon (2)  18:48 18:47+3218:49+321 2m--150.547317mSECRGondia, Maharashtra
13/==/GGondia Junction (7)•  19:18+2219:23+225m--173.392316mSECRGondia 441601, Maharashtra
14/==/TROTirora (3)  19:43 19:42+2919:44+291 2m--1102.672282mSECRDist Gondia, Maharashtra
15/==/TMRTumsar Road (5)X  20:02 20:01+2620:03+261 2m--1122.972267mSECRDistt. Bhandara, Maharashtra
16/==/BRDBhandara Road (3)  20:19 20:18+2620:20+261 2m--1140.987266mSECRState Highway 252 Bhandara District, Maharashtra
17/==/KPKamptee (3)  20:54 20:53+2720:55+271 2m--1188.819290mSECRKamptee, Maharashtra
18/==/NGPNagpur Junction (8)X21:40+1222:05+1325m31203.183314mCRNagpur 440001, Maharashtra
19/==/KATLKatol (2)X  22:49+2522:50+261m--1264.079 CRKatol, Maharashtra
20/==/NRKRNarkher Junction (4)  23:09+2723:10+291m--1289.158411mCRNarkher, Maharashtra
21/==/PARPandhurna (2)  23:29+2723:30+311m--1307.548481mCRDistt: Chhindwara, Madhya Pradesh
22/==/MTYMultai (2)X  00:21+3000:22+311m--2348.360762mCRMultai, Madhya Pradesh
23/==/AMLAAmla Junction (5)XO  00:45+3301:20+2535m--2371.153733mCRAmla Distt. Betul, Madhya Pradesh
24/==/BZUBetul (3)X  01:46+2201:47+251m--2394.050644mCRBetul, Madhya Pradesh
25/==/GDYAGhoradongri (3)X  02:30+2702:31+291m--2429.939 CRBetul, Madhya Pradesh
26/==/ETItarsi Junction (7)  04:20+1004:25+175m--2500.360329mWCRItarsi 461111, Madhya Pradesh
27/==/HBDHoshangabad (2)X  04:44 04:43+2104:45+221 2m--2518.450308mWCRHoshangabad, Madhya Pradesh
28/==/ODGObaidulla Ganj  05:31 05:30+3405:32+351 2m22556.254 WCRObaidullaganj Raisen Dist., Madhya Pradesh
29/==/HBJBhopal HabibGanj (5)XO  06:05+2806:06 06:07+321 2m12585.816496mWCRHabibGanj, Madhya Pradesh
30/==/BPLBhopal Junction (6)X  06:30+2606:35+285m22592.171497mWCRBhopal, Madhya Pradesh
31/==/BHSVidisha (3)X  07:20+2907:22+302m12645.687 WCRVidisha, Madhya Pradesh
32/==/BAQGanj Basoda (4)X  07:50 07:49+3607:51+371 2m12684.946 WCRVidisha, Madhya Pradesh
33/==/MABAMandi Bamora (3)XO  08:29 08:28+2508:30+261 2m12713.423413mWCRState Highway 14, Madhya Pradesh
34/==/BINABina Junction (5)XO  09:15+409:20+85m22730.658414mWCRJn Pt - KATNI/GUNA/ BPL/JHS, Madhya Pradesh
35/==/DUADhaura (3)XO  09:57 09:56+909:58+111 2m--2765.258407mNCRDhaura Tanda, Madhya Pradesh
36/==/JLNJakhalaun (3)  10:12 10:10+910:14 10:12+92m--2776.872394mNCRLalitpur(05176-272220), Uttar Pradesh
37/==/LARLalitpur (3)  10:21 10:26+1110:22 10:28+121 2m32793.586373mNCRLalitpur, Uttar Pradesh
38/==/TBTTalbahat (4)  10:50 10:56+1410:52 10:58+162m32833.459314mNCRKhaniyadhana Station Rd, Madhya Pradesh
39/==/BZYBasai (3)X  11:07 11:11+1511:08 11:13+161 2m22846.352287mNCR07522289600(Gate ManMob. - 9452701575), Madhya Pradesh
40/==/BABBabina (3)  11:22 11:27+1411:23 11:29+151 2m22858.349285mNCRBabina, Uttar Pradesh
41/==/JHSJhansi Junction (7)XO  12:10 12:00+1312:18 12:05+228 5m42883.841259mNCRJhansi, Uttar Pradesh
42/==/DAADatia (2)X  12:41 12:42+1412:42 12:44+161 2m12908.949264mNCRDatia, Madhya Pradesh
43/==/SORSonagir (2)X  12:55 12:58+1312:56 13:00+151 2m--2920.481211mNCRDatia, Madhya Pradesh
44/==/DBADabra (3)X  13:13 13:14+2013:14 13:16+221 2m12939.369 NCRDabra(District-Gwalior), Madhya Pradesh
45/==/GWLGwalior Junction (4)X  13:51 13:53+2513:56 13:58+285m22981.677214mNCRGwalior, Madhya Pradesh
46/==/BAOBanmor  14:12 14:13+3614:13 14:15+361 2m--21000.877189mNCRGwalior, Madhya Pradesh
47/==/MRAMorena (3)O  14:34 14:30+3614:35+351 5m221020.170176mNCRMorena, Madhya Pradesh
48/==/DHODholpur Junction (3)X  14:57 14:58+3414:58 15:00+351 2m121047.053177mNCRDholpur, Rajasthan
49/==/AGCAgra Cantt. (6)X  16:00+3716:08+428m221099.630174mNCRAgra, Uttar Pradesh
50/==/RKMRaja Ki Mandi (4)  16:16+4616:17+471m121103.662170mNCRAgra, Uttar Pradesh
51/==/MTJMathura Junction (10)X  17:05+4517:10+455m221153.381179mNCRMathura, Uttar Pradesh
52/==/CHJChata (4)XO  17:33+4817:34+491m221184.447 NCRChhata, Uttar Pradesh
53/==/KSVKosi Kalan (3)X  17:46 17:47+4817:47 17:49+491 2m121194.742189mNCRKosi Kalan, Uttar Pradesh
54/==/PWLPalwal (8)X  18:39 18:50+2418:40 18:52+261 2m--21237.275200mNRPalwal, Haryana
55/==/BVHBallabgarh (5)X  18:59 19:09+3519:00 19:10+361m--21258.444203mNRFaridabad, Haryana
56/==/FDBFaridabad (4)  19:12 19:21+3819:13 19:23+391 2m221266.439206mNRold Faridabad, Haryana
57/==/NZMDelhi Hazrat Nizamuddin (7)  19:45 19:55+4520:15 20:20+4730 25m121287.237209mNRNew Delhi 110013, Delhi NCT
58/==/SBBSahibabad Junction (5)XO  20:53 20:46+5320:54 20:47+541m--21303.331209mNRGhaziabad, Uttar Pradesh
59/==/GZBGhaziabad Junction (6)X  21:08 21:00+5521:10 21:05+522 5m121310.050217mNRGhaziabad, Uttar Pradesh
60%==%MUDMuradnagar (2)XO  21:27 21:26+1:0121:28+1:011 2m--21327.661220mNRGhaziabad, Uttar Pradesh
61%==%MDNRModinagar (2)X  21:39 21:38+1:0221:40+1:021 2m--21337.758221mNRGhaziabad, Uttar Pradesh
62%==%MTCMeerut City Junction (6)O  22:00+1:0322:05+1:025m321357.252229mNRMeerut, Uttar Pradesh
63%--%MUTMeerut Cantt. (2)  22:11 22:10+1:0422:12+1:041 2m--21361.579230mNRMeerut, Uttar Pradesh
64%--%KATKhatauli (2)  22:38 22:34+1:0622:39 22:35+1:061m221390.660239mNRKhatauli, Uttar Pradesh
65%--%MOZMuzaffarnagar (3)  22:59 22:57+1:0323:00+1:021 3m221412.872247mNRMuzaffarNagar, Uttar Pradesh
66%--%DBDDeoband (2)  23:21 23:20+1:0023:22+591 2m221436.831258mNRSaharanpur, Uttar Pradesh
67/--/SRESaharanpur Junction (6)X  00:20 00:28+5100:30 00:45+4810 17m431471.067276mNRSaharanpur, Uttar Pradesh
68/==/JUDYamunanagar-Jagadhri (3)X  00:59 01:12+5601:00 01:14+571 2m331501.143275mNRYamunanagar, Haryana
69/==/JUDWJagadhri Workshop (2)X  01:08 01:21+5701:09 01:23+581 2m231506.180280mNRRailway Workshop Road, Haryana
70/==/RAABarara (2)  01:27 01:39+1:0001:28 01:41+1:001 2m231527.440279mNRBarara, Haryana
71/==/UMBAmbala Cantt. Junction (7)X  02:05 02:18+5002:15 02:25+5210 7m231552.241278mNRAmbala 133001, Haryana
72/==/UBCAmbala City (3)X  02:29 02:36+5402:30 02:38+551 2m331559.782273mNRNH-1, Haryana
73/==/RPJRajpura Junction (3)X  02:47 02:53+5602:48 02:55+571 2m131580.251272mNRNH-1, Punjab
74/==/SIRSirhind Junction (3)XO  03:26 03:24+4503:28 03:26+462m131605.153271mNRSirhind, Punjab
75/==/GVGMandi Gobindgarh (2)O  03:38 03:37+5203:39+531 2m131614.844268mNRMandi Gobindgarh, Punjab
76/==/KNNKhanna (3)X  03:51 03:50+3603:52+361 2m131623.068269mNRNH 1, Punjab
77/==/LDHLudhiana Junction (7)X  04:30+1:0704:40+1:2910m231665.834246mNRLudhiana 141001, Punjab
78/==/PHRPhillaur Junction (3)X  05:04 05:03+1:2405:05+1:251 2m231678.975246mNRPhillaur, Punjab
79/==/PGWPhagwara Junction (3)X  05:24 05:23+1:2505:25+1:261 2m231701.454245mNRPhagwara, Punjab
80/==/JRCJalandhar Cantt. Junction (3)  05:43+1:2405:45+1:242m131717.729239mNRNear Rama Mandi, Punjab
81/==/JUCJalandhar City Junction (5)X  05:55+1:2406:00+1:275m131722.649239mNRJalandhar 144001, Punjab
82/==/KREKartarpur (2)X  06:19 06:18+1:2406:20+1:241 2m231737.249236mNRKartarpur, Punjab
83/==/BEASBeas Junction (2)  06:47 06:46+1:1806:48+1:181 2m131758.780238mNRBeas, Punjab
84/==/JNLJandiala (2)X  07:07 07:06+1:1907:08+1:191 2m131782.519238mNRJandiala, Punjab
85/==/ASRAmritsar Junction (5)  08:10+34-331801.7-233mNRAmritsar 143002, Punjab
Scroll to Top
Scroll to Bottom